メインページ
METAR-TAF:

METAR-TAF

空港 :

イカルイト空港

イカルイト, ヌナブト準州, カナダ

緯度: 63-45N, 経度: 068-33W, 海抜: 34m

現時点の気象観測

当レポートは56分前の03:00(UTC)に作成
北西の風 8kt
気温 -6°C
湿度 79%
気圧 1011 hPa
視程: 32.2km
高度2300ftの雲はほとんどない
高度3700ftの曇り
小雪

METAR: CYFB 220300Z 32008KT 20SM -SN FEW023 OVC037 M06/M09 A2986 RMK SC1SC7 SLP115

時間: 23:56 (03:56 UTC)

予報

当レポートは4時間18分前の23:38(UTC)に作成
予報は22日の 00時(UTC)から 22日の 24時(UTC)まで有効
北/北西の風 12kt
視程: 10km
高度2000ftの雲はほとんどない
高度4000ftの千切れ雲あり
22日の 00時(UTC)から 22日の 12時(UTC)まで一時的に
視程: 10km
高度2000ftの千切れ雲あり
高度4000ftの曇り
小雪
22日の 1200時(UTC)から
北西の風 15kt
視程: 10km
高度2000ftの雲はほとんどない
高度4000ftの千切れ雲あり
22日の 12時(UTC)から 22日の 24時(UTC)まで一時的に
視程: 10km
高度2000ftの千切れ雲あり
高度4000ftの曇り
小雪
22日の 13時(UTC)から 22日の 15時(UTC)まで徐々に
北/北西の風 20kt

TAF: CYFB 212338Z 2200/2224 33012KT P6SM FEW020 BKN040 TEMPO 2200/2212 P6SM -SN BKN020 OVC040 FM221200 32015KT P6SM FEW020 BKN040 TEMPO 2212/2224 P6SM -SN BKN020 OVC040 BECMG 2213/2215 33020KT RMK NXT FCST BY 220600Z

4,000以上の空港の気象観測と天気予報(METAR報とTAF報)

利用可能な観測所は地図上に黄色い丸と赤い丸で示す。

丸の上にカーソルを重ねると観測所名を参照できる。

次にクリックすると気象観測と天気予報を参照できる。

マップの切り替え:黒色「×」印の緑ボタンをクリックして拡大、「-」印の緑ボタンをクリックして縮小、緑色の三角印をクリックして隣りの地図に切り替え


METAR-TAF: